HSSS

Khartoum International Airport

Khartoum, Sudan
METAR HSSS 251840Z 11014G24KT 6000 FEW050CB SCT040 BKN140 32/13 Q1012 L TO SE TEMPO 8000 TSRA FEW040CB SCT040 BKN140
Observed Flight Rules
Sep-25 @ 18:40 UTC (24 minutes ago) Marginal Visual Flight Rules
Wind Visibility Clouds
110° at 14 knots
 Gusting to 24 knots
6,003 meters
  • Few at 5,000' AGL
  • Scattered at 4,000' AGL
  • Broken at 14,000' AGL
Temperatures Readings
Current 32°C / 90°F
Dewpoint 13°C / 55°F
Humidity 31%
Altimeter 29.88" Hg
Pressure 1012 hPa
Elevation 380
METAR HSSS 251840Z 11014G24KT 6000 FEW050CB SCT040 BKN140 32/13 Q1012 L TO SE TEMPO 8000 TSRA FEW040CB SCT040 BKN140
Observed Flight Rules
Sep-25 @ 18:40 UTC
(24 minutes ago)
MVFR
Wind Visibility
110° at 14 knots
 Gusting to 24 knots
6,003 meters
Clouds
  • Few at 5,000' AGL
  • Scattered at 4,000' AGL
  • Broken at 14,000' AGL
Temperature Dewpoint
32°C / 90°F 13°C / 55°F
Humidity Altimeter Pressure
31% 29.88" Hg 1012 hPa